sensor_id;sensor_type;location;lat;lon;timestamp;P1;durP1;ratioP1;P2;durP2;ratioP2
3587;SDS011;1808;53.596;9.972;2023-02-28T00:00:33;5.07;;;2.05;;
3587;SDS011;1808;53.596;9.972;2023-02-28T00:03:00;4.88;;;2.60;;
3587;SDS011;1808;53.596;9.972;2023-02-28T00:05:27;6.28;;;3.42;;
3587;SDS011;1808;53.596;9.972;2023-02-28T00:07:54;5.82;;;2.40;;
3587;SDS011;1808;53.596;9.972;2023-02-28T00:10:23;7.40;;;2.78;;
3587;SDS011;1808;53.596;9.972;2023-02-28T00:12:51;6.50;;;2.42;;
3587;SDS011;1808;53.596;9.972;2023-02-28T00:15:18;6.47;;;2.65;;
3587;SDS011;1808;53.596;9.972;2023-02-28T00:17:46;5.22;;;2.20;;
3587;SDS011;1808;53.596;9.972;2023-02-28T00:20:13;4.60;;;2.28;;
3587;SDS011;1808;53.596;9.972;2023-02-28T00:22:40;4.65;;;2.30;;
3587;SDS011;1808;53.596;9.972;2023-02-28T00:25:08;6.10;;;2.25;;
3587;SDS011;1808;53.596;9.972;2023-02-28T00:27:37;5.13;;;1.58;;
3587;SDS011;1808;53.596;9.972;2023-02-28T00:30:05;5.40;;;1.70;;
3587;SDS011;1808;53.596;9.972;2023-02-28T00:32:33;7.43;;;1.77;;
3587;SDS011;1808;53.596;9.972;2023-02-28T00:35:01;4.53;;;1.70;;
3587;SDS011;1808;53.596;9.972;2023-02-28T00:37:27;5.35;;;1.80;;
3587;SDS011;1808;53.596;9.972;2023-02-28T00:39:54;7.13;;;1.83;;
3587;SDS011;1808;53.596;9.972;2023-02-28T00:42:20;5.03;;;1.90;;
3587;SDS011;1808;53.596;9.972;2023-02-28T00:44:48;5.68;;;1.60;;
3587;SDS011;1808;53.596;9.972;2023-02-28T00:47:14;6.38;;;1.60;;
3587;SDS011;1808;53.596;9.972;2023-02-28T00:49:41;7.10;;;1.67;;
3587;SDS011;1808;53.596;9.972;2023-02-28T00:52:08;3.45;;;1.73;;
3587;SDS011;1808;53.596;9.972;2023-02-28T00:54:34;6.72;;;1.73;;
3587;SDS011;1808;53.596;9.972;2023-02-28T00:57:01;4.85;;;1.92;;
3587;SDS011;1808;53.596;9.972;2023-02-28T00:59:27;5.65;;;1.90;;
3587;SDS011;1808;53.596;9.972;2023-02-28T01:01:55;4.55;;;1.75;;
3587;SDS011;1808;53.596;9.972;2023-02-28T01:04:22;5.00;;;1.75;;
3587;SDS011;1808;53.596;9.972;2023-02-28T01:06:48;5.43;;;1.70;;
3587;SDS011;1808;53.596;9.972;2023-02-28T01:09:14;6.35;;;1.90;;
3587;SDS011;1808;53.596;9.972;2023-02-28T01:11:41;6.13;;;1.95;;
3587;SDS011;1808;53.596;9.972;2023-02-28T01:14:10;4.35;;;1.73;;
3587;SDS011;1808;53.596;9.972;2023-02-28T01:16:38;7.80;;;1.80;;
3587;SDS011;1808;53.596;9.972;2023-02-28T01:19:06;5.65;;;2.00;;
3587;SDS011;1808;53.596;9.972;2023-02-28T01:21:32;6.75;;;1.80;;
3587;SDS011;1808;53.596;9.972;2023-02-28T01:24:00;7.53;;;2.00;;
3587;SDS011;1808;53.596;9.972;2023-02-28T01:26:26;7.03;;;1.67;;
3587;SDS011;1808;53.596;9.972;2023-02-28T01:28:53;8.20;;;1.90;;
3587;SDS011;1808;53.596;9.972;2023-02-28T01:31:20;7.93;;;2.13;;
3587;SDS011;1808;53.596;9.972;2023-02-28T01:33:47;6.15;;;1.90;;
3587;SDS011;1808;53.596;9.972;2023-02-28T01:36:15;3.47;;;1.90;;
3587;SDS011;1808;53.596;9.972;2023-02-28T01:38:43;6.03;;;1.92;;
3587;SDS011;1808;53.596;9.972;2023-02-28T01:41:12;4.88;;;2.35;;
3587;SDS011;1808;53.596;9.972;2023-02-28T01:43:59;5.15;;;2.10;;
3587;SDS011;1808;53.596;9.972;2023-02-28T01:46:29;9.20;;;2.40;;
3587;SDS011;1808;53.596;9.972;2023-02-28T01:48:57;6.00;;;2.60;;
3587;SDS011;1808;53.596;9.972;2023-02-28T01:51:30;5.20;;;2.27;;
3587;SDS011;1808;53.596;9.972;2023-02-28T01:54:01;8.18;;;2.38;;
3587;SDS011;1808;53.596;9.972;2023-02-28T01:56:30;6.22;;;2.33;;
3587;SDS011;1808;53.596;9.972;2023-02-28T01:58:59;7.80;;;3.38;;
3587;SDS011;1808;53.596;9.972;2023-02-28T02:01:26;6.78;;;2.30;;
3587;SDS011;1808;53.596;9.972;2023-02-28T02:03:54;8.18;;;2.85;;
3587;SDS011;1808;53.596;9.972;2023-02-28T02:06:22;7.85;;;2.50;;
3587;SDS011;1808;53.596;9.972;2023-02-28T02:08:50;7.53;;;2.40;;
3587;SDS011;1808;53.596;9.972;2023-02-28T02:11:17;5.95;;;2.70;;
3587;SDS011;1808;53.596;9.972;2023-02-28T02:13:52;5.63;;;2.65;;
3587;SDS011;1808;53.596;9.972;2023-02-28T02:16:31;8.20;;;2.53;;
3587;SDS011;1808;53.596;9.972;2023-02-28T02:19:03;7.53;;;2.63;;
3587;SDS011;1808;53.596;9.972;2023-02-28T02:21:46;9.13;;;2.70;;
3587;SDS011;1808;53.596;9.972;2023-02-28T02:24:35;7.60;;;2.83;;
3587;SDS011;1808;53.596;9.972;2023-02-28T02:27:17;9.23;;;2.85;;
3587;SDS011;1808;53.596;9.972;2023-02-28T02:29:48;8.13;;;3.33;;
3587;SDS011;1808;53.596;9.972;2023-02-28T02:32:28;20.67;;;7.50;;
3587;SDS011;1808;53.596;9.972;2023-02-28T02:35:09;19.15;;;6.38;;
3587;SDS011;1808;53.596;9.972;2023-02-28T02:37:39;10.77;;;3.70;;
3587;SDS011;1808;53.596;9.972;2023-02-28T02:40:09;10.00;;;4.10;;
3587;SDS011;1808;53.596;9.972;2023-02-28T02:42:41;10.45;;;5.07;;
3587;SDS011;1808;53.596;9.972;2023-02-28T02:47:38;9.05;;;4.20;;
3587;SDS011;1808;53.596;9.972;2023-02-28T02:50:05;12.90;;;4.78;;
3587;SDS011;1808;53.596;9.972;2023-02-28T02:52:37;12.70;;;4.85;;
3587;SDS011;1808;53.596;9.972;2023-02-28T02:55:07;8.07;;;3.33;;
3587;SDS011;1808;53.596;9.972;2023-02-28T02:57:36;10.05;;;3.50;;
3587;SDS011;1808;53.596;9.972;2023-02-28T03:00:07;8.25;;;2.42;;
3587;SDS011;1808;53.596;9.972;2023-02-28T03:02:35;8.40;;;3.40;;
3587;SDS011;1808;53.596;9.972;2023-02-28T03:05:02;9.40;;;2.80;;
3587;SDS011;1808;53.596;9.972;2023-02-28T03:07:31;8.52;;;3.03;;
3587;SDS011;1808;53.596;9.972;2023-02-28T03:09:59;7.13;;;2.88;;
3587;SDS011;1808;53.596;9.972;2023-02-28T03:12:27;8.15;;;2.92;;
3587;SDS011;1808;53.596;9.972;2023-02-28T03:15:03;7.35;;;3.22;;
3587;SDS011;1808;53.596;9.972;2023-02-28T03:17:44;8.35;;;3.53;;
3587;SDS011;1808;53.596;9.972;2023-02-28T03:20:16;9.65;;;3.38;;
3587;SDS011;1808;53.596;9.972;2023-02-28T03:22:56;7.00;;;2.95;;
3587;SDS011;1808;53.596;9.972;2023-02-28T03:25:32;8.68;;;3.13;;
3587;SDS011;1808;53.596;9.972;2023-02-28T03:28:03;5.18;;;3.10;;
3587;SDS011;1808;53.596;9.972;2023-02-28T03:30:36;6.65;;;3.55;;
3587;SDS011;1808;53.596;9.972;2023-02-28T03:33:07;6.40;;;3.58;;
3587;SDS011;1808;53.596;9.972;2023-02-28T03:35:38;9.10;;;3.45;;
3587;SDS011;1808;53.596;9.972;2023-02-28T03:38:07;7.82;;;3.72;;
3587;SDS011;1808;53.596;9.972;2023-02-28T03:40:40;8.77;;;3.78;;
3587;SDS011;1808;53.596;9.972;2023-02-28T03:43:10;8.98;;;3.97;;
3587;SDS011;1808;53.596;9.972;2023-02-28T03:45:39;8.07;;;4.20;;
3587;SDS011;1808;53.596;9.972;2023-02-28T03:48:07;9.35;;;3.67;;
3587;SDS011;1808;53.596;9.972;2023-02-28T03:50:38;11.20;;;4.57;;
3587;SDS011;1808;53.596;9.972;2023-02-28T03:53:07;11.80;;;5.05;;
3587;SDS011;1808;53.596;9.972;2023-02-28T03:55:37;10.45;;;3.65;;
3587;SDS011;1808;53.596;9.972;2023-02-28T03:58:11;9.80;;;4.15;;
3587;SDS011;1808;53.596;9.972;2023-02-28T04:00:40;7.45;;;4.00;;
3587;SDS011;1808;53.596;9.972;2023-02-28T04:03:10;7.38;;;3.97;;
3587;SDS011;1808;53.596;9.972;2023-02-28T04:05:44;9.30;;;4.60;;
3587;SDS011;1808;53.596;9.972;2023-02-28T04:08:14;9.73;;;4.20;;
3587;SDS011;1808;53.596;9.972;2023-02-28T04:10:41;8.73;;;4.15;;
3587;SDS011;1808;53.596;9.972;2023-02-28T04:13:09;8.90;;;4.30;;
3587;SDS011;1808;53.596;9.972;2023-02-28T04:15:35;11.43;;;4.80;;
3587;SDS011;1808;53.596;9.972;2023-02-28T04:18:02;8.68;;;4.13;;
3587;SDS011;1808;53.596;9.972;2023-02-28T04:20:28;12.73;;;4.47;;
3587;SDS011;1808;53.596;9.972;2023-02-28T04:22:54;7.00;;;4.22;;
3587;SDS011;1808;53.596;9.972;2023-02-28T04:25:21;13.23;;;4.28;;
3587;SDS011;1808;53.596;9.972;2023-02-28T04:27:48;10.88;;;4.30;;
3587;SDS011;1808;53.596;9.972;2023-02-28T04:30:15;7.20;;;4.00;;
3587;SDS011;1808;53.596;9.972;2023-02-28T04:32:41;8.85;;;4.18;;
3587;SDS011;1808;53.596;9.972;2023-02-28T04:35:08;8.18;;;4.15;;
3587;SDS011;1808;53.596;9.972;2023-02-28T04:37:34;10.63;;;4.07;;
3587;SDS011;1808;53.596;9.972;2023-02-28T04:40:02;9.50;;;4.63;;
3587;SDS011;1808;53.596;9.972;2023-02-28T04:42:28;10.13;;;4.55;;
3587;SDS011;1808;53.596;9.972;2023-02-28T04:45:01;13.32;;;4.28;;
3587;SDS011;1808;53.596;9.972;2023-02-28T04:47:28;12.05;;;4.00;;
3587;SDS011;1808;53.596;9.972;2023-02-28T04:49:54;12.45;;;4.50;;
3587;SDS011;1808;53.596;9.972;2023-02-28T04:52:20;10.13;;;3.78;;
3587;SDS011;1808;53.596;9.972;2023-02-28T04:54:47;10.30;;;4.20;;
3587;SDS011;1808;53.596;9.972;2023-02-28T04:57:13;7.35;;;4.57;;
3587;SDS011;1808;53.596;9.972;2023-02-28T04:59:40;10.85;;;4.35;;
3587;SDS011;1808;53.596;9.972;2023-02-28T05:02:07;10.38;;;4.28;;
3587;SDS011;1808;53.596;9.972;2023-02-28T05:04:34;9.55;;;4.32;;
3587;SDS011;1808;53.596;9.972;2023-02-28T05:07:01;11.63;;;5.50;;
3587;SDS011;1808;53.596;9.972;2023-02-28T05:09:28;8.25;;;4.05;;
3587;SDS011;1808;53.596;9.972;2023-02-28T05:11:54;11.18;;;4.55;;
3587;SDS011;1808;53.596;9.972;2023-02-28T05:14:21;9.57;;;4.50;;
3587;SDS011;1808;53.596;9.972;2023-02-28T05:16:47;9.85;;;4.53;;
3587;SDS011;1808;53.596;9.972;2023-02-28T05:19:15;8.70;;;4.40;;
3587;SDS011;1808;53.596;9.972;2023-02-28T05:21:41;9.88;;;4.47;;
3587;SDS011;1808;53.596;9.972;2023-02-28T05:24:15;11.48;;;4.35;;
3587;SDS011;1808;53.596;9.972;2023-02-28T05:26:47;12.80;;;5.47;;
3587;SDS011;1808;53.596;9.972;2023-02-28T05:29:15;9.50;;;4.60;;
3587;SDS011;1808;53.596;9.972;2023-02-28T05:31:41;11.15;;;5.22;;
3587;SDS011;1808;53.596;9.972;2023-02-28T05:34:07;9.25;;;4.10;;
3587;SDS011;1808;53.596;9.972;2023-02-28T05:36:37;12.68;;;5.72;;
3587;SDS011;1808;53.596;9.972;2023-02-28T05:39:04;11.07;;;4.97;;
3587;SDS011;1808;53.596;9.972;2023-02-28T05:41:32;10.35;;;5.22;;
3587;SDS011;1808;53.596;9.972;2023-02-28T05:43:59;11.82;;;4.97;;
3587;SDS011;1808;53.596;9.972;2023-02-28T05:46:25;9.98;;;5.30;;
3587;SDS011;1808;53.596;9.972;2023-02-28T05:48:51;13.65;;;5.70;;
3587;SDS011;1808;53.596;9.972;2023-02-28T05:51:18;10.75;;;4.78;;
3587;SDS011;1808;53.596;9.972;2023-02-28T05:53:46;11.02;;;5.28;;
3587;SDS011;1808;53.596;9.972;2023-02-28T05:56:13;14.00;;;5.38;;
3587;SDS011;1808;53.596;9.972;2023-02-28T05:58:39;13.32;;;6.03;;
3587;SDS011;1808;53.596;9.972;2023-02-28T06:01:19;12.05;;;5.32;;
3587;SDS011;1808;53.596;9.972;2023-02-28T06:03:47;10.93;;;5.07;;
3587;SDS011;1808;53.596;9.972;2023-02-28T06:06:14;8.68;;;5.00;;
3587;SDS011;1808;53.596;9.972;2023-02-28T06:08:43;17.52;;;5.30;;
3587;SDS011;1808;53.596;9.972;2023-02-28T06:11:12;10.82;;;5.95;;
3587;SDS011;1808;53.596;9.972;2023-02-28T06:13:38;15.98;;;6.28;;
3587;SDS011;1808;53.596;9.972;2023-02-28T06:16:05;10.07;;;5.80;;
3587;SDS011;1808;53.596;9.972;2023-02-28T06:18:32;11.25;;;6.00;;
3587;SDS011;1808;53.596;9.972;2023-02-28T06:20:58;11.00;;;5.70;;
3587;SDS011;1808;53.596;9.972;2023-02-28T06:23:24;11.07;;;5.25;;
3587;SDS011;1808;53.596;9.972;2023-02-28T06:25:51;10.40;;;5.10;;
3587;SDS011;1808;53.596;9.972;2023-02-28T06:28:19;15.93;;;7.20;;
3587;SDS011;1808;53.596;9.972;2023-02-28T06:30:46;17.95;;;6.43;;
3587;SDS011;1808;53.596;9.972;2023-02-28T06:33:12;12.82;;;6.13;;
3587;SDS011;1808;53.596;9.972;2023-02-28T06:35:38;12.65;;;6.53;;
3587;SDS011;1808;53.596;9.972;2023-02-28T06:38:05;11.50;;;5.97;;
3587;SDS011;1808;53.596;9.972;2023-02-28T06:40:31;14.52;;;5.50;;
3587;SDS011;1808;53.596;9.972;2023-02-28T06:43:00;14.25;;;6.10;;
3587;SDS011;1808;53.596;9.972;2023-02-28T06:45:27;12.18;;;6.00;;
3587;SDS011;1808;53.596;9.972;2023-02-28T06:47:54;12.50;;;5.57;;
3587;SDS011;1808;53.596;9.972;2023-02-28T06:50:21;13.25;;;5.88;;
3587;SDS011;1808;53.596;9.972;2023-02-28T06:52:47;12.70;;;6.13;;
3587;SDS011;1808;53.596;9.972;2023-02-28T06:55:18;13.52;;;5.78;;
3587;SDS011;1808;53.596;9.972;2023-02-28T06:57:45;21.27;;;7.53;;
3587;SDS011;1808;53.596;9.972;2023-02-28T07:00:12;21.77;;;7.85;;
3587;SDS011;1808;53.596;9.972;2023-02-28T07:02:40;14.60;;;6.65;;
3587;SDS011;1808;53.596;9.972;2023-02-28T07:05:07;20.63;;;7.40;;
3587;SDS011;1808;53.596;9.972;2023-02-28T07:07:33;12.88;;;6.97;;
3587;SDS011;1808;53.596;9.972;2023-02-28T07:10:02;13.48;;;7.03;;
3587;SDS011;1808;53.596;9.972;2023-02-28T07:12:29;12.57;;;6.68;;
3587;SDS011;1808;53.596;9.972;2023-02-28T07:14:55;16.90;;;7.03;;
3587;SDS011;1808;53.596;9.972;2023-02-28T07:17:21;15.43;;;7.00;;
3587;SDS011;1808;53.596;9.972;2023-02-28T07:19:49;13.90;;;8.65;;
3587;SDS011;1808;53.596;9.972;2023-02-28T07:22:15;16.77;;;7.93;;
3587;SDS011;1808;53.596;9.972;2023-02-28T07:24:42;19.17;;;8.63;;
3587;SDS011;1808;53.596;9.972;2023-02-28T07:27:08;20.40;;;8.32;;
3587;SDS011;1808;53.596;9.972;2023-02-28T07:29:34;21.58;;;7.32;;
3587;SDS011;1808;53.596;9.972;2023-02-28T07:32:02;24.77;;;8.98;;
3587;SDS011;1808;53.596;9.972;2023-02-28T07:34:28;18.17;;;7.70;;
3587;SDS011;1808;53.596;9.972;2023-02-28T07:36:56;16.58;;;7.60;;
3587;SDS011;1808;53.596;9.972;2023-02-28T07:39:22;16.67;;;8.48;;
3587;SDS011;1808;53.596;9.972;2023-02-28T07:41:48;22.95;;;9.10;;
3587;SDS011;1808;53.596;9.972;2023-02-28T07:44:15;20.15;;;8.00;;
3587;SDS011;1808;53.596;9.972;2023-02-28T07:46:41;18.55;;;8.50;;
3587;SDS011;1808;53.596;9.972;2023-02-28T07:49:07;18.73;;;8.52;;
3587;SDS011;1808;53.596;9.972;2023-02-28T07:51:34;18.38;;;7.45;;
3587;SDS011;1808;53.596;9.972;2023-02-28T07:54:01;15.82;;;8.15;;
3587;SDS011;1808;53.596;9.972;2023-02-28T07:56:28;23.05;;;8.55;;
3587;SDS011;1808;53.596;9.972;2023-02-28T07:58:54;23.30;;;8.93;;
3587;SDS011;1808;53.596;9.972;2023-02-28T08:01:21;18.88;;;7.72;;
3587;SDS011;1808;53.596;9.972;2023-02-28T08:03:47;13.95;;;7.05;;
3587;SDS011;1808;53.596;9.972;2023-02-28T08:06:17;18.85;;;7.20;;
3587;SDS011;1808;53.596;9.972;2023-02-28T08:08:45;15.43;;;6.38;;
3587;SDS011;1808;53.596;9.972;2023-02-28T08:11:12;13.98;;;6.65;;
3587;SDS011;1808;53.596;9.972;2023-02-28T08:13:39;13.75;;;5.65;;
3587;SDS011;1808;53.596;9.972;2023-02-28T08:16:07;12.13;;;5.65;;
3587;SDS011;1808;53.596;9.972;2023-02-28T08:18:34;12.57;;;5.80;;
3587;SDS011;1808;53.596;9.972;2023-02-28T08:21:05;13.43;;;6.00;;
3587;SDS011;1808;53.596;9.972;2023-02-28T08:23:32;9.93;;;5.03;;
3587;SDS011;1808;53.596;9.972;2023-02-28T08:25:58;10.57;;;4.70;;
3587;SDS011;1808;53.596;9.972;2023-02-28T08:28:26;12.65;;;4.88;;
3587;SDS011;1808;53.596;9.972;2023-02-28T08:30:52;12.88;;;5.40;;
3587;SDS011;1808;53.596;9.972;2023-02-28T08:33:18;8.98;;;5.22;;
3587;SDS011;1808;53.596;9.972;2023-02-28T08:35:45;12.18;;;4.53;;
3587;SDS011;1808;53.596;9.972;2023-02-28T08:38:11;10.02;;;4.63;;
3587;SDS011;1808;53.596;9.972;2023-02-28T08:40:38;8.27;;;4.10;;
3587;SDS011;1808;53.596;9.972;2023-02-28T08:43:04;9.15;;;4.03;;
3587;SDS011;1808;53.596;9.972;2023-02-28T08:45:32;4.80;;;3.05;;
3587;SDS011;1808;53.596;9.972;2023-02-28T08:47:58;6.85;;;3.35;;
3587;SDS011;1808;53.596;9.972;2023-02-28T08:50:24;8.77;;;2.88;;
3587;SDS011;1808;53.596;9.972;2023-02-28T08:52:50;4.63;;;2.22;;
3587;SDS011;1808;53.596;9.972;2023-02-28T08:55:17;6.75;;;2.30;;
3587;SDS011;1808;53.596;9.972;2023-02-28T08:57:43;5.30;;;2.13;;
3587;SDS011;1808;53.596;9.972;2023-02-28T09:00:10;7.43;;;2.50;;
3587;SDS011;1808;53.596;9.972;2023-02-28T09:02:40;7.38;;;2.80;;
3587;SDS011;1808;53.596;9.972;2023-02-28T09:05:08;7.32;;;2.20;;
3587;SDS011;1808;53.596;9.972;2023-02-28T09:07:34;5.72;;;2.05;;
3587;SDS011;1808;53.596;9.972;2023-02-28T09:10:00;3.40;;;1.92;;
3587;SDS011;1808;53.596;9.972;2023-02-28T09:12:27;4.22;;;2.00;;
3587;SDS011;1808;53.596;9.972;2023-02-28T09:14:53;7.88;;;2.08;;
3587;SDS011;1808;53.596;9.972;2023-02-28T09:17:20;5.80;;;2.17;;
3587;SDS011;1808;53.596;9.972;2023-02-28T09:19:48;5.03;;;1.67;;
3587;SDS011;1808;53.596;9.972;2023-02-28T09:22:14;5.97;;;1.70;;
3587;SDS011;1808;53.596;9.972;2023-02-28T09:24:41;3.15;;;1.70;;
3587;SDS011;1808;53.596;9.972;2023-02-28T09:27:09;5.18;;;1.90;;
3587;SDS011;1808;53.596;9.972;2023-02-28T09:29:36;9.25;;;3.10;;
3587;SDS011;1808;53.596;9.972;2023-02-28T09:32:03;4.50;;;1.77;;
3587;SDS011;1808;53.596;9.972;2023-02-28T09:34:30;5.93;;;2.20;;
3587;SDS011;1808;53.596;9.972;2023-02-28T09:36:58;5.20;;;1.80;;
3587;SDS011;1808;53.596;9.972;2023-02-28T09:39:24;5.10;;;1.70;;
3587;SDS011;1808;53.596;9.972;2023-02-28T09:41:52;4.50;;;1.60;;
3587;SDS011;1808;53.596;9.972;2023-02-28T09:44:22;4.18;;;1.40;;
3587;SDS011;1808;53.596;9.972;2023-02-28T09:46:54;4.90;;;1.48;;
3587;SDS011;1808;53.596;9.972;2023-02-28T09:49:25;4.10;;;1.73;;
3587;SDS011;1808;53.596;9.972;2023-02-28T09:52:00;5.80;;;2.00;;
3587;SDS011;1808;53.596;9.972;2023-02-28T09:54:28;6.25;;;2.30;;
3587;SDS011;1808;53.596;9.972;2023-02-28T09:56:58;4.80;;;1.80;;
3587;SDS011;1808;53.596;9.972;2023-02-28T09:59:29;5.70;;;1.90;;
3587;SDS011;1808;53.596;9.972;2023-02-28T10:02:03;5.00;;;2.05;;
3587;SDS011;1808;53.596;9.972;2023-02-28T10:04:36;3.97;;;1.95;;
3587;SDS011;1808;53.596;9.972;2023-02-28T10:07:13;5.53;;;1.77;;
3587;SDS011;1808;53.596;9.972;2023-02-28T10:09:46;4.93;;;1.70;;
3587;SDS011;1808;53.596;9.972;2023-02-28T10:12:17;3.95;;;1.60;;
3587;SDS011;1808;53.596;9.972;2023-02-28T10:14:44;5.38;;;2.10;;
3587;SDS011;1808;53.596;9.972;2023-02-28T10:17:12;4.85;;;1.75;;
3587;SDS011;1808;53.596;9.972;2023-02-28T10:19:40;5.03;;;1.85;;
3587;SDS011;1808;53.596;9.972;2023-02-28T10:22:12;6.65;;;2.10;;
3587;SDS011;1808;53.596;9.972;2023-02-28T10:24:41;4.38;;;1.85;;
3587;SDS011;1808;53.596;9.972;2023-02-28T10:27:12;5.15;;;1.85;;
3587;SDS011;1808;53.596;9.972;2023-02-28T10:29:40;5.03;;;2.05;;
3587;SDS011;1808;53.596;9.972;2023-02-28T10:32:09;3.95;;;1.90;;
3587;SDS011;1808;53.596;9.972;2023-02-28T10:34:37;5.20;;;2.10;;
3587;SDS011;1808;53.596;9.972;2023-02-28T10:37:03;5.25;;;1.50;;
3587;SDS011;1808;53.596;9.972;2023-02-28T10:39:35;4.93;;;1.55;;
3587;SDS011;1808;53.596;9.972;2023-02-28T10:42:18;4.75;;;1.83;;
3587;SDS011;1808;53.596;9.972;2023-02-28T10:44:46;4.13;;;1.90;;
3587;SDS011;1808;53.596;9.972;2023-02-28T10:47:13;4.32;;;2.05;;
3587;SDS011;1808;53.596;9.972;2023-02-28T10:49:43;3.83;;;1.73;;
3587;SDS011;1808;53.596;9.972;2023-02-28T10:52:13;5.72;;;2.13;;
3587;SDS011;1808;53.596;9.972;2023-02-28T10:54:40;4.43;;;2.30;;
3587;SDS011;1808;53.596;9.972;2023-02-28T10:57:08;4.55;;;2.45;;
3587;SDS011;1808;53.596;9.972;2023-02-28T10:59:37;3.78;;;1.83;;
3587;SDS011;1808;53.596;9.972;2023-02-28T11:02:11;3.83;;;1.75;;
3587;SDS011;1808;53.596;9.972;2023-02-28T11:04:56;5.68;;;2.17;;
3587;SDS011;1808;53.596;9.972;2023-02-28T11:07:23;3.28;;;1.63;;
3587;SDS011;1808;53.596;9.972;2023-02-28T11:09:51;3.20;;;1.70;;
3587;SDS011;1808;53.596;9.972;2023-02-28T11:12:22;5.80;;;2.20;;
3587;SDS011;1808;53.596;9.972;2023-02-28T11:14:51;4.78;;;1.80;;
3587;SDS011;1808;53.596;9.972;2023-02-28T11:17:19;5.75;;;1.90;;
3587;SDS011;1808;53.596;9.972;2023-02-28T11:19:47;4.90;;;2.08;;
3587;SDS011;1808;53.596;9.972;2023-02-28T11:22:17;3.45;;;1.60;;
3587;SDS011;1808;53.596;9.972;2023-02-28T11:24:45;6.38;;;1.67;;
3587;SDS011;1808;53.596;9.972;2023-02-28T11:27:25;4.68;;;1.80;;
3587;SDS011;1808;53.596;9.972;2023-02-28T11:30:00;5.45;;;3.38;;
3587;SDS011;1808;53.596;9.972;2023-02-28T11:32:27;4.38;;;2.00;;
3587;SDS011;1808;53.596;9.972;2023-02-28T11:35:00;3.83;;;1.88;;
3587;SDS011;1808;53.596;9.972;2023-02-28T11:37:28;5.18;;;2.17;;
3587;SDS011;1808;53.596;9.972;2023-02-28T11:39:57;4.00;;;2.05;;
3587;SDS011;1808;53.596;9.972;2023-02-28T11:42:28;5.78;;;2.05;;
3587;SDS011;1808;53.596;9.972;2023-02-28T11:45:03;4.90;;;2.00;;
3587;SDS011;1808;53.596;9.972;2023-02-28T11:47:38;5.05;;;2.17;;
3587;SDS011;1808;53.596;9.972;2023-02-28T11:50:15;5.45;;;1.98;;
3587;SDS011;1808;53.596;9.972;2023-02-28T11:52:48;5.13;;;2.05;;
3587;SDS011;1808;53.596;9.972;2023-02-28T11:55:20;7.15;;;2.80;;
3587;SDS011;1808;53.596;9.972;2023-02-28T11:57:52;4.90;;;2.15;;
3587;SDS011;1808;53.596;9.972;2023-02-28T12:00:38;5.50;;;3.00;;
3587;SDS011;1808;53.596;9.972;2023-02-28T12:03:11;5.75;;;2.75;;
3587;SDS011;1808;53.596;9.972;2023-02-28T12:05:43;5.50;;;2.17;;
3587;SDS011;1808;53.596;9.972;2023-02-28T12:08:16;5.20;;;2.47;;
3587;SDS011;1808;53.596;9.972;2023-02-28T12:10:53;7.65;;;2.60;;
3587;SDS011;1808;53.596;9.972;2023-02-28T12:13:29;4.75;;;2.13;;
3587;SDS011;1808;53.596;9.972;2023-02-28T12:16:12;4.60;;;2.10;;
3587;SDS011;1808;53.596;9.972;2023-02-28T12:18:50;6.75;;;2.40;;
3587;SDS011;1808;53.596;9.972;2023-02-28T12:21:22;4.95;;;2.90;;
3587;SDS011;1808;53.596;9.972;2023-02-28T12:23:56;5.72;;;2.45;;
3587;SDS011;1808;53.596;9.972;2023-02-28T12:26:28;6.53;;;2.17;;
3587;SDS011;1808;53.596;9.972;2023-02-28T12:29:01;6.20;;;2.70;;
3587;SDS011;1808;53.596;9.972;2023-02-28T12:31:31;5.82;;;2.90;;
3587;SDS011;1808;53.596;9.972;2023-02-28T12:34:03;6.80;;;2.80;;
3587;SDS011;1808;53.596;9.972;2023-02-28T12:36:32;6.57;;;2.50;;
3587;SDS011;1808;53.596;9.972;2023-02-28T12:39:00;5.20;;;2.50;;
3587;SDS011;1808;53.596;9.972;2023-02-28T12:41:29;6.13;;;2.60;;
3587;SDS011;1808;53.596;9.972;2023-02-28T12:44:03;5.55;;;2.65;;
3587;SDS011;1808;53.596;9.972;2023-02-28T12:46:32;11.52;;;3.25;;
3587;SDS011;1808;53.596;9.972;2023-02-28T12:49:00;7.40;;;2.55;;
3587;SDS011;1808;53.596;9.972;2023-02-28T12:51:31;7.28;;;2.70;;
3587;SDS011;1808;53.596;9.972;2023-02-28T12:54:01;6.72;;;2.63;;
3587;SDS011;1808;53.596;9.972;2023-02-28T12:56:35;7.50;;;2.97;;
3587;SDS011;1808;53.596;9.972;2023-02-28T12:59:07;4.55;;;2.92;;
3587;SDS011;1808;53.596;9.972;2023-02-28T13:01:42;7.18;;;3.33;;
3587;SDS011;1808;53.596;9.972;2023-02-28T13:10:03;9.05;;;3.58;;
3587;SDS011;1808;53.596;9.972;2023-02-28T13:12:31;10.15;;;2.90;;
3587;SDS011;1808;53.596;9.972;2023-02-28T13:15:15;7.72;;;3.08;;
3587;SDS011;1808;53.596;9.972;2023-02-28T13:17:46;6.60;;;3.10;;
3587;SDS011;1808;53.596;9.972;2023-02-28T13:20:15;6.50;;;2.90;;
3587;SDS011;1808;53.596;9.972;2023-02-28T13:22:44;8.07;;;3.42;;
3587;SDS011;1808;53.596;9.972;2023-02-28T13:31:17;8.10;;;3.00;;
3587;SDS011;1808;53.596;9.972;2023-02-28T13:36:31;5.72;;;2.75;;
3587;SDS011;1808;53.596;9.972;2023-02-28T13:38:58;8.02;;;3.00;;
3587;SDS011;1808;53.596;9.972;2023-02-28T13:41:43;9.70;;;3.53;;
3587;SDS011;1808;53.596;9.972;2023-02-28T13:44:10;6.00;;;2.95;;
3587;SDS011;1808;53.596;9.972;2023-02-28T13:49:38;8.00;;;3.28;;
3587;SDS011;1808;53.596;9.972;2023-02-28T13:52:07;6.40;;;2.60;;
3587;SDS011;1808;53.596;9.972;2023-02-28T13:54:43;6.38;;;3.20;;
3587;SDS011;1808;53.596;9.972;2023-02-28T13:57:21;7.30;;;3.75;;
3587;SDS011;1808;53.596;9.972;2023-02-28T13:59:53;10.88;;;3.75;;
3587;SDS011;1808;53.596;9.972;2023-02-28T14:02:36;9.82;;;2.95;;
3587;SDS011;1808;53.596;9.972;2023-02-28T14:05:14;5.40;;;3.17;;
3587;SDS011;1808;53.596;9.972;2023-02-28T14:07:43;5.78;;;3.15;;
3587;SDS011;1808;53.596;9.972;2023-02-28T14:10:19;6.53;;;3.25;;
3587;SDS011;1808;53.596;9.972;2023-02-28T14:12:53;7.53;;;3.10;;
3587;SDS011;1808;53.596;9.972;2023-02-28T14:18:20;7.22;;;3.35;;
3587;SDS011;1808;53.596;9.972;2023-02-28T14:20:52;7.82;;;3.65;;
3587;SDS011;1808;53.596;9.972;2023-02-28T14:23:24;5.93;;;3.13;;
3587;SDS011;1808;53.596;9.972;2023-02-28T14:26:00;6.57;;;3.40;;
3587;SDS011;1808;53.596;9.972;2023-02-28T14:28:37;6.57;;;3.38;;
3587;SDS011;1808;53.596;9.972;2023-02-28T14:31:22;9.98;;;3.03;;
3587;SDS011;1808;53.596;9.972;2023-02-28T14:33:57;8.73;;;4.22;;
3587;SDS011;1808;53.596;9.972;2023-02-28T14:36:31;7.45;;;4.15;;
3587;SDS011;1808;53.596;9.972;2023-02-28T14:38:59;10.52;;;4.15;;
3587;SDS011;1808;53.596;9.972;2023-02-28T14:41:29;9.10;;;4.50;;
3587;SDS011;1808;53.596;9.972;2023-02-28T14:43:57;8.90;;;3.42;;
3587;SDS011;1808;53.596;9.972;2023-02-28T14:46:25;6.78;;;3.53;;
3587;SDS011;1808;53.596;9.972;2023-02-28T14:48:54;8.05;;;3.40;;
3587;SDS011;1808;53.596;9.972;2023-02-28T14:51:21;6.88;;;3.78;;
3587;SDS011;1808;53.596;9.972;2023-02-28T14:53:50;7.95;;;3.50;;
3587;SDS011;1808;53.596;9.972;2023-02-28T14:56:22;8.02;;;3.50;;
3587;SDS011;1808;53.596;9.972;2023-02-28T14:58:53;10.05;;;4.03;;
3587;SDS011;1808;53.596;9.972;2023-02-28T15:01:22;7.50;;;4.07;;
3587;SDS011;1808;53.596;9.972;2023-02-28T15:03:56;6.57;;;3.70;;
3587;SDS011;1808;53.596;9.972;2023-02-28T15:06:23;5.97;;;3.03;;
3587;SDS011;1808;53.596;9.972;2023-02-28T15:11:37;7.32;;;3.50;;
3587;SDS011;1808;53.596;9.972;2023-02-28T15:14:04;9.30;;;3.90;;
3587;SDS011;1808;53.596;9.972;2023-02-28T15:16:31;5.88;;;3.42;;
3587;SDS011;1808;53.596;9.972;2023-02-28T15:19:00;7.65;;;3.70;;
3587;SDS011;1808;53.596;9.972;2023-02-28T15:21:27;8.90;;;3.30;;
3587;SDS011;1808;53.596;9.972;2023-02-28T15:23:56;8.07;;;3.30;;
3587;SDS011;1808;53.596;9.972;2023-02-28T15:26:27;9.25;;;3.63;;
3587;SDS011;1808;53.596;9.972;2023-02-28T15:28:57;11.50;;;3.50;;
3587;SDS011;1808;53.596;9.972;2023-02-28T15:31:26;12.38;;;3.50;;
3587;SDS011;1808;53.596;9.972;2023-02-28T15:33:53;9.05;;;3.28;;
3587;SDS011;1808;53.596;9.972;2023-02-28T15:36:20;5.95;;;3.60;;
3587;SDS011;1808;53.596;9.972;2023-02-28T15:38:52;6.22;;;3.28;;
3587;SDS011;1808;53.596;9.972;2023-02-28T15:41:27;6.65;;;2.63;;
3587;SDS011;1808;53.596;9.972;2023-02-28T15:44:14;7.72;;;3.55;;
3587;SDS011;1808;53.596;9.972;2023-02-28T15:46:54;7.22;;;3.50;;
3587;SDS011;1808;53.596;9.972;2023-02-28T15:49:22;9.13;;;4.65;;
3587;SDS011;1808;53.596;9.972;2023-02-28T15:51:49;9.02;;;3.38;;